sensor_id;sensor_type;location;lat;lon;timestamp;pressure;altitude;pressure_sealevel;temperature;humidity
16821;BME280;8527;49.740;6.604;2023-04-01T00:00:17;98052.91;;;9.85;87.22
16821;BME280;8527;49.740;6.604;2023-04-01T00:05:26;98063.31;;;9.80;87.16
16821;BME280;8527;49.740;6.604;2023-04-01T00:10:25;98051.06;;;9.79;87.24
16821;BME280;8527;49.740;6.604;2023-04-01T00:15:26;98041.09;;;9.81;86.80
16821;BME280;8527;49.740;6.604;2023-04-01T00:20:25;98054.72;;;9.78;87.56
16821;BME280;8527;49.740;6.604;2023-04-01T00:25:26;98057.78;;;9.75;87.92
16821;BME280;8527;49.740;6.604;2023-04-01T00:30:27;98047.63;;;9.72;88.28
16821;BME280;8527;49.740;6.604;2023-04-01T00:36:04;98048.22;;;9.74;87.78
16821;BME280;8527;49.740;6.604;2023-04-01T00:40:46;98042.94;;;9.74;87.87
16821;BME280;8527;49.740;6.604;2023-04-01T00:45:50;98045.38;;;9.69;88.00
16821;BME280;8527;49.740;6.604;2023-04-01T00:50:54;98041.91;;;9.68;88.12
16821;BME280;8527;49.740;6.604;2023-04-01T00:56:13;98041.91;;;9.68;88.17
16821;BME280;8527;49.740;6.604;2023-04-01T01:01:22;98044.38;;;9.70;88.17
16821;BME280;8527;49.740;6.604;2023-04-01T01:06:34;98032.34;;;9.67;87.70
16821;BME280;8527;49.740;6.604;2023-04-01T01:11:40;98027.66;;;9.69;87.80
16821;BME280;8527;49.740;6.604;2023-04-01T01:16:44;98032.53;;;9.66;88.36
16821;BME280;8527;49.740;6.604;2023-04-01T01:22:17;98019.09;;;9.67;88.27
16821;BME280;8527;49.740;6.604;2023-04-01T01:27:21;98018.09;;;9.68;87.57
16821;BME280;8527;49.740;6.604;2023-04-01T01:32:51;98014.41;;;9.69;86.93
16821;BME280;8527;49.740;6.604;2023-04-01T01:37:58;98006.88;;;9.73;86.98
16821;BME280;8527;49.740;6.604;2023-04-01T01:43:00;98005.25;;;9.72;86.90
16821;BME280;8527;49.740;6.604;2023-04-01T01:48:05;98008.09;;;9.70;86.63
16821;BME280;8527;49.740;6.604;2023-04-01T01:53:09;98011.75;;;9.69;87.14
16821;BME280;8527;49.740;6.604;2023-04-01T01:58:11;98007.50;;;9.68;87.81
16821;BME280;8527;49.740;6.604;2023-04-01T02:03:11;98010.97;;;9.62;88.81
16821;BME280;8527;49.740;6.604;2023-04-01T02:08:18;98019.13;;;9.61;90.10
16821;BME280;8527;49.740;6.604;2023-04-01T02:13:24;98009.97;;;9.50;91.31
16821;BME280;8527;49.740;6.604;2023-04-01T02:18:25;98016.91;;;9.37;92.88
16821;BME280;8527;49.740;6.604;2023-04-01T02:23:28;98025.63;;;9.38;93.91
16821;BME280;8527;49.740;6.604;2023-04-01T02:28:27;98028.69;;;9.35;94.64
16821;BME280;8527;49.740;6.604;2023-04-01T02:33:30;98021.38;;;9.23;96.33
16821;BME280;8527;49.740;6.604;2023-04-01T02:38:35;98025.03;;;9.22;96.67
16821;BME280;8527;49.740;6.604;2023-04-01T02:43:34;98022.19;;;9.17;97.47
16821;BME280;8527;49.740;6.604;2023-04-01T02:48:37;98015.25;;;9.16;97.10
16821;BME280;8527;49.740;6.604;2023-04-01T02:53:43;98015.25;;;9.16;96.68
16821;BME280;8527;49.740;6.604;2023-04-01T02:58:42;98011.19;;;9.07;97.53
16821;BME280;8527;49.740;6.604;2023-04-01T03:03:44;98000.97;;;9.04;98.59
16821;BME280;8527;49.740;6.604;2023-04-01T03:08:45;97998.16;;;9.05;98.12
16821;BME280;8527;49.740;6.604;2023-04-01T03:13:44;97997.53;;;9.03;97.61
16821;BME280;8527;49.740;6.604;2023-04-01T03:18:43;98002.22;;;9.01;97.50
16821;BME280;8527;49.740;6.604;2023-04-01T03:23:47;98002.22;;;9.01;97.60
16821;BME280;8527;49.740;6.604;2023-04-01T03:28:49;98013.41;;;9.03;97.12
16821;BME280;8527;49.740;6.604;2023-04-01T03:33:52;98000.97;;;8.97;96.97
16821;BME280;8527;49.740;6.604;2023-04-01T03:38:54;97991.22;;;8.91;97.23
16821;BME280;8527;49.740;6.604;2023-04-01T03:43:53;98005.06;;;8.99;97.96
16821;BME280;8527;49.740;6.604;2023-04-01T03:48:52;97999.56;;;8.94;97.71
16821;BME280;8527;49.740;6.604;2023-04-01T03:53:56;97981.84;;;8.88;98.12
16821;BME280;8527;49.740;6.604;2023-04-01T03:59:19;97989.41;;;8.91;98.31
16821;BME280;8527;49.740;6.604;2023-04-01T04:04:21;97991.63;;;8.88;98.00
16821;BME280;8527;49.740;6.604;2023-04-01T04:09:22;97990.59;;;8.82;98.54
16821;BME280;8527;49.740;6.604;2023-04-01T04:14:21;97989.16;;;8.79;98.39
16821;BME280;8527;49.740;6.604;2023-04-01T04:19:20;97993.44;;;8.80;99.52
16821;BME280;8527;49.740;6.604;2023-04-01T04:24:18;97999.94;;;8.78;99.38
16821;BME280;8527;49.740;6.604;2023-04-01T04:29:19;97999.94;;;8.78;100.00
16821;BME280;8527;49.740;6.604;2023-04-01T04:34:23;97999.53;;;8.74;100.00
16821;BME280;8527;49.740;6.604;2023-04-01T04:39:26;97993.22;;;8.68;100.00
16821;BME280;8527;49.740;6.604;2023-04-01T04:44:28;97999.72;;;8.72;100.00
16821;BME280;8527;49.740;6.604;2023-04-01T04:49:26;97995.25;;;8.66;100.00
16821;BME280;8527;49.740;6.604;2023-04-01T04:54:27;98002.53;;;8.64;100.00
16821;BME280;8527;49.740;6.604;2023-04-01T04:59:34;98010.28;;;8.66;100.00
16821;BME280;8527;49.740;6.604;2023-04-01T05:04:35;97999.91;;;8.64;100.00
16821;BME280;8527;49.740;6.604;2023-04-01T05:09:33;98013.34;;;8.63;100.00
16821;BME280;8527;49.740;6.604;2023-04-01T05:14:38;98015.16;;;8.62;100.00
16821;BME280;8527;49.740;6.604;2023-04-01T05:19:39;98001.31;;;8.60;100.00
16821;BME280;8527;49.740;6.604;2023-04-01T05:24:37;98010.09;;;8.61;100.00
16821;BME280;8527;49.740;6.604;2023-04-01T05:29:38;98017.78;;;8.62;100.00
16821;BME280;8527;49.740;6.604;2023-04-01T05:34:42;98016.41;;;8.66;100.00
16821;BME280;8527;49.740;6.604;2023-04-01T05:39:41;98019.41;;;8.63;100.00
16821;BME280;8527;49.740;6.604;2023-04-01T05:44:49;98018.41;;;8.64;100.00
16821;BME280;8527;49.740;6.604;2023-04-01T05:49:47;98022.91;;;8.70;100.00
16821;BME280;8527;49.740;6.604;2023-04-01T05:54:45;98021.72;;;8.73;100.00
16821;BME280;8527;49.740;6.604;2023-04-01T06:00:02;98026.16;;;8.72;100.00
16821;BME280;8527;49.740;6.604;2023-04-01T06:05:13;98035.72;;;8.73;100.00
16821;BME280;8527;49.740;6.604;2023-04-01T06:10:14;98039.22;;;8.81;100.00
16821;BME280;8527;49.740;6.604;2023-04-01T06:15:25;98042.03;;;8.79;100.00
16821;BME280;8527;49.740;6.604;2023-04-01T06:20:35;98040.84;;;8.82;100.00
16821;BME280;8527;49.740;6.604;2023-04-01T06:25:49;98048.97;;;8.80;100.00
16821;BME280;8527;49.740;6.604;2023-04-01T06:30:52;98048.19;;;8.86;100.00
16821;BME280;8527;49.740;6.604;2023-04-01T06:36:17;98049.97;;;8.79;100.00
16821;BME280;8527;49.740;6.604;2023-04-01T06:46:52;98064.66;;;8.89;100.00
16821;BME280;8527;49.740;6.604;2023-04-01T06:52:01;98064.88;;;8.94;100.00
16821;BME280;8527;49.740;6.604;2023-04-01T06:57:14;98062.03;;;9.02;100.00
16821;BME280;8527;49.740;6.604;2023-04-01T07:02:27;98065.91;;;9.06;100.00
16821;BME280;8527;49.740;6.604;2023-04-01T07:07:35;98066.13;;;9.05;100.00
16821;BME280;8527;49.740;6.604;2023-04-01T07:12:42;98071.03;;;9.14;100.00
16821;BME280;8527;49.740;6.604;2023-04-01T07:17:43;98074.28;;;9.23;100.00
16821;BME280;8527;49.740;6.604;2023-04-01T07:22:48;98079.16;;;9.33;100.00
16821;BME280;8527;49.740;6.604;2023-04-01T07:27:47;98076.16;;;9.36;100.00
16821;BME280;8527;49.740;6.604;2023-04-01T07:32:48;98087.94;;;9.40;100.00
16821;BME280;8527;49.740;6.604;2023-04-01T07:38:08;98091.00;;;9.37;100.00
16821;BME280;8527;49.740;6.604;2023-04-01T07:43:22;98103.00;;;9.47;100.00
16821;BME280;8527;49.740;6.604;2023-04-01T07:48:30;98105.66;;;9.47;100.00
16821;BME280;8527;49.740;6.604;2023-04-01T07:53:38;98111.78;;;9.47;100.00
16821;BME280;8527;49.740;6.604;2023-04-01T07:58:51;98110.94;;;9.53;100.00
16821;BME280;8527;49.740;6.604;2023-04-01T08:09:28;98124.59;;;9.57;100.00
16821;BME280;8527;49.740;6.604;2023-04-01T08:14:36;98129.28;;;9.68;100.00
16821;BME280;8527;49.740;6.604;2023-04-01T08:19:51;98130.31;;;9.74;100.00
16821;BME280;8527;49.740;6.604;2023-04-01T08:25:02;98135.19;;;9.77;100.00
16821;BME280;8527;49.740;6.604;2023-04-01T08:30:14;98143.97;;;9.84;100.00
16821;BME280;8527;49.740;6.604;2023-04-01T08:35:20;98147.03;;;9.88;100.00
16821;BME280;8527;49.740;6.604;2023-04-01T08:40:45;98148.84;;;10.01;100.00
16821;BME280;8527;49.740;6.604;2023-04-01T08:45:56;98151.50;;;10.08;100.00
16821;BME280;8527;49.740;6.604;2023-04-01T08:51:16;98146.00;;;10.09;100.00
16821;BME280;8527;49.740;6.604;2023-04-01T08:56:34;98149.66;;;10.15;100.00
16821;BME280;8527;49.740;6.604;2023-04-01T09:07:31;98149.06;;;10.13;100.00
16821;BME280;8527;49.740;6.604;2023-04-01T09:13:07;98157.81;;;10.20;100.00
16821;BME280;8527;49.740;6.604;2023-04-01T09:18:32;98159.81;;;10.32;100.00
16821;BME280;8527;49.740;6.604;2023-04-01T09:34:55;98154.50;;;10.38;100.00
16821;BME280;8527;49.740;6.604;2023-04-01T09:40:18;98159.22;;;10.50;100.00
16821;BME280;8527;49.740;6.604;2023-04-01T09:45:45;98169.00;;;10.56;100.00
16821;BME280;8527;49.740;6.604;2023-04-01T09:50:57;98174.06;;;10.64;100.00
16821;BME280;8527;49.740;6.604;2023-04-01T09:56:33;98180.59;;;10.68;100.00
16821;BME280;8527;49.740;6.604;2023-04-01T10:02:04;98179.94;;;10.73;100.00
16821;BME280;8527;49.740;6.604;2023-04-01T10:36:00;98207.25;;;10.94;100.00
16821;BME280;8527;49.740;6.604;2023-04-01T10:47:15;98200.53;;;10.84;100.00
16821;BME280;8527;49.740;6.604;2023-04-01T10:58:37;98199.44;;;10.99;100.00
16821;BME280;8527;49.740;6.604;2023-04-01T11:04:11;98200.31;;;10.93;100.00
16821;BME280;8527;49.740;6.604;2023-04-01T11:20:52;98201.84;;;11.14;100.00
16821;BME280;8527;49.740;6.604;2023-04-01T11:26:05;98196.84;;;11.38;100.00
16821;BME280;8527;49.740;6.604;2023-04-01T11:36:51;98210.94;;;11.38;100.00
16821;BME280;8527;49.740;6.604;2023-04-01T11:42:06;98217.25;;;11.44;100.00
16821;BME280;8527;49.740;6.604;2023-04-01T11:47:20;98226.94;;;11.25;100.00
16821;BME280;8527;49.740;6.604;2023-04-01T11:52:55;98235.13;;;11.17;100.00
16821;BME280;8527;49.740;6.604;2023-04-01T11:58:24;98248.81;;;11.20;100.00
16821;BME280;8527;49.740;6.604;2023-04-01T12:09:12;98269.69;;;11.03;100.00
16821;BME280;8527;49.740;6.604;2023-04-01T12:14:26;98268.28;;;10.80;100.00
16821;BME280;8527;49.740;6.604;2023-04-01T12:19:40;98273.56;;;10.94;100.00
16821;BME280;8527;49.740;6.604;2023-04-01T12:24:58;98278.84;;;11.07;100.00
16821;BME280;8527;49.740;6.604;2023-04-01T12:30:23;98275.53;;;11.25;100.00
16821;BME280;8527;49.740;6.604;2023-04-01T12:35:33;98279.97;;;11.45;100.00
16821;BME280;8527;49.740;6.604;2023-04-01T12:40:48;98276.44;;;11.51;100.00
16821;BME280;8527;49.740;6.604;2023-04-01T12:46:03;98280.28;;;11.56;100.00
16821;BME280;8527;49.740;6.604;2023-04-01T12:51:32;98277.91;;;11.47;100.00
16821;BME280;8527;49.740;6.604;2023-04-01T12:56:44;98282.94;;;11.56;100.00
16821;BME280;8527;49.740;6.604;2023-04-01T13:02:03;98287.25;;;11.57;100.00
16821;BME280;8527;49.740;6.604;2023-04-01T13:13:16;98300.88;;;11.67;98.53
16821;BME280;8527;49.740;6.604;2023-04-01T13:18:28;98302.66;;;11.80;97.74
16821;BME280;8527;49.740;6.604;2023-04-01T13:23:53;98303.09;;;11.77;97.11
16821;BME280;8527;49.740;6.604;2023-04-01T13:28:58;98307.47;;;12.03;96.72
16821;BME280;8527;49.740;6.604;2023-04-01T13:34:13;98315.44;;;12.03;95.97
16821;BME280;8527;49.740;6.604;2023-04-01T13:39:27;98317.84;;;12.12;96.61
16821;BME280;8527;49.740;6.604;2023-04-01T13:44:39;98325.25;;;12.09;95.52
16821;BME280;8527;49.740;6.604;2023-04-01T13:55:43;98331.59;;;12.08;95.09
16821;BME280;8527;49.740;6.604;2023-04-01T14:00:55;98329.38;;;12.31;94.00
16821;BME280;8527;49.740;6.604;2023-04-01T14:06:18;98336.50;;;12.05;94.99
16821;BME280;8527;49.740;6.604;2023-04-01T14:11:26;98341.50;;;11.81;95.35
16821;BME280;8527;49.740;6.604;2023-04-01T14:16:55;98351.09;;;11.82;95.59
16821;BME280;8527;49.740;6.604;2023-04-01T14:21:58;98361.63;;;11.50;97.82
16821;BME280;8527;49.740;6.604;2023-04-01T14:27:33;98363.25;;;11.64;97.30
16821;BME280;8527;49.740;6.604;2023-04-01T14:32:42;98368.00;;;11.35;98.38
16821;BME280;8527;49.740;6.604;2023-04-01T14:38:04;98371.28;;;11.44;97.68
16821;BME280;8527;49.740;6.604;2023-04-01T14:43:23;98383.56;;;11.25;97.43
16821;BME280;8527;49.740;6.604;2023-04-01T14:48:28;98381.75;;;11.12;97.60
16821;BME280;8527;49.740;6.604;2023-04-01T14:53:35;98387.25;;;11.10;98.64
16821;BME280;8527;49.740;6.604;2023-04-01T14:58:46;98385.22;;;11.13;98.48
16821;BME280;8527;49.740;6.604;2023-04-01T15:03:53;98397.66;;;11.19;99.66
16821;BME280;8527;49.740;6.604;2023-04-01T15:08:58;98392.53;;;11.17;98.81
16821;BME280;8527;49.740;6.604;2023-04-01T15:14:24;98406.19;;;11.34;99.27
16821;BME280;8527;49.740;6.604;2023-04-01T15:19:50;98399.03;;;11.55;97.61
16821;BME280;8527;49.740;6.604;2023-04-01T15:25:05;98409.88;;;11.33;98.25
16821;BME280;8527;49.740;6.604;2023-04-01T15:30:32;98412.78;;;11.25;98.01
16821;BME280;8527;49.740;6.604;2023-04-01T15:35:39;98422.16;;;11.21;98.00
16821;BME280;8527;49.740;6.604;2023-04-01T15:40:47;98410.31;;;11.23;97.66
16821;BME280;8527;49.740;6.604;2023-04-01T15:45:58;98426.66;;;11.14;98.50
16821;BME280;8527;49.740;6.604;2023-04-01T15:51:08;98432.78;;;11.21;97.19
16821;BME280;8527;49.740;6.604;2023-04-01T15:56:26;98431.97;;;11.00;98.98
16821;BME280;8527;49.740;6.604;2023-04-01T16:01:38;98435.63;;;11.06;98.37
16821;BME280;8527;49.740;6.604;2023-04-01T16:06:58;98446.25;;;10.92;98.41
16821;BME280;8527;49.740;6.604;2023-04-01T16:12:05;98446.25;;;10.99;97.21
16821;BME280;8527;49.740;6.604;2023-04-01T16:17:25;98455.44;;;10.83;97.92
16821;BME280;8527;49.740;6.604;2023-04-01T16:22:26;98462.34;;;10.57;98.00
16821;BME280;8527;49.740;6.604;2023-04-01T16:27:35;98468.25;;;10.66;98.14
16821;BME280;8527;49.740;6.604;2023-04-01T16:32:45;98472.97;;;10.77;97.94
16821;BME280;8527;49.740;6.604;2023-04-01T16:37:53;98478.72;;;10.88;96.88
16821;BME280;8527;49.740;6.604;2023-04-01T16:43:04;98488.66;;;10.72;97.11
16821;BME280;8527;49.740;6.604;2023-04-01T16:48:12;98487.59;;;10.53;98.67
16821;BME280;8527;49.740;6.604;2023-04-01T16:53:17;98495.75;;;10.45;99.48
16821;BME280;8527;49.740;6.604;2023-04-01T16:58:22;98504.72;;;10.44;100.00
16821;BME280;8527;49.740;6.604;2023-04-01T17:03:28;98511.56;;;10.31;100.00
16821;BME280;8527;49.740;6.604;2023-04-01T17:08:37;98514.88;;;10.40;100.00
16821;BME280;8527;49.740;6.604;2023-04-01T17:13:46;98522.22;;;10.38;100.00
16821;BME280;8527;49.740;6.604;2023-04-01T17:19:03;98522.81;;;10.40;100.00
16821;BME280;8527;49.740;6.604;2023-04-01T17:24:14;98527.28;;;10.33;100.00
16821;BME280;8527;49.740;6.604;2023-04-01T17:29:26;98525.59;;;10.25;100.00
16821;BME280;8527;49.740;6.604;2023-04-01T17:34:42;98535.75;;;10.14;100.00
16821;BME280;8527;49.740;6.604;2023-04-01T17:39:53;98536.53;;;10.08;100.00
16821;BME280;8527;49.740;6.604;2023-04-01T17:44:59;98537.09;;;9.97;100.00
16821;BME280;8527;49.740;6.604;2023-04-01T17:50:13;98549.66;;;9.88;100.00
16821;BME280;8527;49.740;6.604;2023-04-01T17:55:34;98549.81;;;9.80;100.00
16821;BME280;8527;49.740;6.604;2023-04-01T18:01:14;98560.81;;;9.77;100.00
16821;BME280;8527;49.740;6.604;2023-04-01T18:06:20;98560.94;;;9.68;100.00
16821;BME280;8527;49.740;6.604;2023-04-01T18:11:28;98572.72;;;9.66;100.00
16821;BME280;8527;49.740;6.604;2023-04-01T18:16:58;98574.00;;;9.70;100.00
16821;BME280;8527;49.740;6.604;2023-04-01T18:22:10;98585.59;;;9.69;100.00
16821;BME280;8527;49.740;6.604;2023-04-01T18:27:16;98585.09;;;9.59;100.00
16821;BME280;8527;49.740;6.604;2023-04-01T18:32:30;98592.03;;;9.60;100.00
16821;BME280;8527;49.740;6.604;2023-04-01T18:37:38;98603.19;;;9.55;100.00
16821;BME280;8527;49.740;6.604;2023-04-01T18:42:44;98607.47;;;9.56;100.00
16821;BME280;8527;49.740;6.604;2023-04-01T18:47:47;98610.06;;;9.49;100.00
16821;BME280;8527;49.740;6.604;2023-04-01T18:52:56;98622.50;;;9.49;100.00
16821;BME280;8527;49.740;6.604;2023-04-01T18:58:12;98631.75;;;9.60;100.00
16821;BME280;8527;49.740;6.604;2023-04-01T19:03:20;98642.78;;;9.63;100.00
16821;BME280;8527;49.740;6.604;2023-04-01T19:08:28;98645.22;;;9.65;100.00
16821;BME280;8527;49.740;6.604;2023-04-01T19:13:41;98655.75;;;9.58;100.00
16821;BME280;8527;49.740;6.604;2023-04-01T19:19:05;98669.22;;;9.56;100.00
16821;BME280;8527;49.740;6.604;2023-04-01T19:24:32;98674.28;;;9.58;100.00
16821;BME280;8527;49.740;6.604;2023-04-01T19:29:53;98669.16;;;9.50;100.00
16821;BME280;8527;49.740;6.604;2023-04-01T19:35:02;98691.97;;;9.51;100.00
16821;BME280;8527;49.740;6.604;2023-04-01T19:40:20;98691.06;;;9.43;100.00
16821;BME280;8527;49.740;6.604;2023-04-01T19:45:38;98696.97;;;9.46;100.00
16821;BME280;8527;49.740;6.604;2023-04-01T19:50:40;98698.00;;;9.45;100.00
16821;BME280;8527;49.740;6.604;2023-04-01T19:55:49;98712.53;;;9.34;100.00
16821;BME280;8527;49.740;6.604;2023-04-01T20:00:53;98711.47;;;9.28;100.00
16821;BME280;8527;49.740;6.604;2023-04-01T20:06:00;98716.84;;;9.35;100.00
16821;BME280;8527;49.740;6.604;2023-04-01T20:11:11;98713.94;;;9.29;100.00
16821;BME280;8527;49.740;6.604;2023-04-01T20:16:15;98732.53;;;9.36;100.00
16821;BME280;8527;49.740;6.604;2023-04-01T20:21:31;98742.13;;;9.37;100.00
16821;BME280;8527;49.740;6.604;2023-04-01T20:26:35;98750.84;;;9.38;100.00
16821;BME280;8527;49.740;6.604;2023-04-01T20:31:37;98755.44;;;9.44;100.00
16821;BME280;8527;49.740;6.604;2023-04-01T20:36:51;98766.44;;;9.48;100.00
16821;BME280;8527;49.740;6.604;2023-04-01T20:42:06;98764.06;;;9.53;100.00
16821;BME280;8527;49.740;6.604;2023-04-01T20:47:21;98767.22;;;9.26;100.00
16821;BME280;8527;49.740;6.604;2023-04-01T20:52:32;98766.59;;;9.24;100.00
16821;BME280;8527;49.740;6.604;2023-04-01T20:57:42;98773.25;;;9.20;100.00
16821;BME280;8527;49.740;6.604;2023-04-01T21:03:03;98776.00;;;9.27;100.00
16821;BME280;8527;49.740;6.604;2023-04-01T21:08:17;98781.28;;;9.27;100.00
16821;BME280;8527;49.740;6.604;2023-04-01T21:13:31;98783.09;;;9.26;100.00
16821;BME280;8527;49.740;6.604;2023-04-01T21:18:54;98795.91;;;9.23;100.00
16821;BME280;8527;49.740;6.604;2023-04-01T21:24:35;98798.16;;;9.11;100.00
16821;BME280;8527;49.740;6.604;2023-04-01T21:29:50;98800.72;;;9.04;100.00
16821;BME280;8527;49.740;6.604;2023-04-01T21:35:00;98811.13;;;9.06;100.00
16821;BME280;8527;49.740;6.604;2023-04-01T21:40:19;98813.94;;;9.04;99.60
16821;BME280;8527;49.740;6.604;2023-04-01T21:45:40;98808.19;;;9.00;99.97
16821;BME280;8527;49.740;6.604;2023-04-01T21:50:48;98819.25;;;9.04;99.90
16821;BME280;8527;49.740;6.604;2023-04-01T22:06:59;98834.47;;;9.02;100.00
16821;BME280;8527;49.740;6.604;2023-04-01T22:12:10;98833.22;;;8.98;100.00
16821;BME280;8527;49.740;6.604;2023-04-01T22:17:20;98837.28;;;8.85;100.00
16821;BME280;8527;49.740;6.604;2023-04-01T22:22:38;98842.13;;;8.82;100.00
16821;BME280;8527;49.740;6.604;2023-04-01T22:27:48;98844.94;;;8.80;100.00
16821;BME280;8527;49.740;6.604;2023-04-01T22:32:58;98847.09;;;8.77;100.00
16821;BME280;8527;49.740;6.604;2023-04-01T22:38:09;98852.75;;;8.73;100.00
16821;BME280;8527;49.740;6.604;2023-04-01T22:43:13;98850.59;;;8.77;100.00
16821;BME280;8527;49.740;6.604;2023-04-01T22:48:18;98846.91;;;8.63;100.00
16821;BME280;8527;49.740;6.604;2023-04-01T22:53:36;98847.09;;;8.62;100.00
16821;BME280;8527;49.740;6.604;2023-04-01T22:58:47;98851.91;;;8.58;100.00
16821;BME280;8527;49.740;6.604;2023-04-01T23:03:56;98856.47;;;8.64;100.00
16821;BME280;8527;49.740;6.604;2023-04-01T23:09:04;98869.03;;;8.62;100.00
16821;BME280;8527;49.740;6.604;2023-04-01T23:14:35;98863.97;;;8.61;100.00
16821;BME280;8527;49.740;6.604;2023-04-01T23:19:43;98863.03;;;8.45;100.00
16821;BME280;8527;49.740;6.604;2023-04-01T23:24:49;98877.25;;;8.44;100.00
16821;BME280;8527;49.740;6.604;2023-04-01T23:29:50;98873.59;;;8.45;100.00
16821;BME280;8527;49.740;6.604;2023-04-01T23:34:57;98877.44;;;8.42;100.00
16821;BME280;8527;49.740;6.604;2023-04-01T23:39:57;98881.94;;;8.34;100.00
16821;BME280;8527;49.740;6.604;2023-04-01T23:45:00;98886.41;;;8.33;100.00
16821;BME280;8527;49.740;6.604;2023-04-01T23:50:04;98892.34;;;8.35;100.00
16821;BME280;8527;49.740;6.604;2023-04-01T23:55:13;98897.63;;;8.35;100.00
